Time;durP1;ratioP1;P1;durP2;ratioP2;P2;SDS_P1;SDS_P2;PMS_P1;PMS_P2;Temp;Humidity;BMP_temperature;BMP_pressure;BME280_temperature;BME280_humidity;BME280_pressure;Samples;Min_cycle;Max_cycle;Signal;HPM_P1;HPM_P2
2020/12/21 00:04:38;;;;;;;0.60;0.60;;;5.10;99.90;;;;;;5541335;23;20321;-84
2020/12/21 00:07:04;;;;;;;0.50;0.50;;;5.10;99.90;;;;;;4953523;29;20203;-82
2020/12/21 00:09:30;;;;;;;0.50;0.50;;;5.00;99.90;;;;;;4950349;28;20227;-81
2020/12/21 00:11:56;;;;;;;0.50;0.50;;;5.00;99.90;;;;;;4949996;29;20690;-82
2020/12/21 00:14:22;;;;;;;0.50;0.50;;;5.00;99.90;;;;;;4949827;29;20506;-82
2020/12/21 00:16:50;;;;;;;0.50;0.50;;;5.00;99.90;;;;;;4950314;29;20250;-81
2020/12/21 00:19:18;;;;;;;0.50;0.50;;;5.00;99.90;;;;;;4949695;29;20199;-81
2020/12/21 00:21:46;;;;;;;0.50;0.50;;;4.90;99.90;;;;;;4950140;29;20204;-82
2020/12/21 00:24:12;;;;;;;0.50;0.50;;;4.80;99.90;;;;;;4949947;29;20606;-82
2020/12/21 00:26:45;;;;;;;0.60;0.60;;;4.80;99.90;;;;;;4950149;29;20199;-81
2020/12/21 00:29:11;;;;;;;0.50;0.50;;;4.80;99.90;;;;;;4949634;29;20711;-82
2020/12/21 00:31:37;;;;;;;0.50;0.50;;;4.70;99.90;;;;;;4949879;29;20279;-82
2020/12/21 00:34:05;;;;;;;0.50;0.50;;;4.70;99.90;;;;;;4950058;29;20200;-82
2020/12/21 00:36:32;;;;;;;0.50;0.50;;;4.60;99.90;;;;;;4949760;29;20633;-82
2020/12/21 00:38:59;;;;;;;0.50;0.50;;;4.60;99.90;;;;;;4949980;29;20204;-82
2020/12/21 00:41:25;;;;;;;0.55;0.55;;;4.60;99.90;;;;;;4949735;29;20199;-82
2020/12/21 00:43:52;;;;;;;0.50;0.50;;;4.70;99.90;;;;;;4949542;29;20250;-82
2020/12/21 00:46:20;;;;;;;0.50;0.50;;;4.60;99.90;;;;;;4949880;29;20625;-82
2020/12/21 00:48:47;;;;;;;0.50;0.50;;;4.50;99.90;;;;;;4949803;29;20212;-82
2020/12/21 00:51:14;;;;;;;0.50;0.50;;;4.50;99.90;;;;;;4949399;29;20759;-82
2020/12/21 00:53:41;;;;;;;0.50;0.50;;;4.40;99.90;;;;;;4951030;28;20784;-81
2020/12/21 00:56:08;;;;;;;0.50;0.50;;;4.40;99.90;;;;;;4952899;29;20219;-82
2020/12/21 00:58:36;;;;;;;0.50;0.50;;;4.30;99.90;;;;;;4953263;29;20208;-81
2020/12/21 01:01:05;;;;;;;0.50;0.50;;;4.40;99.90;;;;;;4953382;29;20200;-81
2020/12/21 01:03:31;;;;;;;0.50;0.50;;;4.50;99.90;;;;;;4953016;29;20204;-81
2020/12/21 01:05:57;;;;;;;0.50;0.50;;;4.40;99.90;;;;;;4953308;29;20212;-81
2020/12/21 01:08:23;;;;;;;0.50;0.50;;;4.40;99.90;;;;;;4953358;29;20203;-82
2020/12/21 01:10:49;;;;;;;0.50;0.50;;;4.40;99.90;;;;;;4952838;28;20705;-82
2020/12/21 01:13:16;;;;;;;0.52;0.52;;;4.40;99.90;;;;;;4952907;29;20754;-82
2020/12/21 01:15:43;;;;;;;0.50;0.50;;;4.40;99.90;;;;;;4952782;29;20229;-82
2020/12/21 01:18:09;;;;;;;0.50;0.50;;;4.30;99.90;;;;;;4952397;29;20200;-82
2020/12/21 01:20:35;;;;;;;0.50;0.50;;;4.20;99.90;;;;;;4956868;29;20211;-82
2020/12/21 01:23:01;;;;;;;0.50;0.50;;;4.20;99.90;;;;;;4953167;29;20209;-82
2020/12/21 01:25:27;;;;;;;0.60;0.60;;;4.20;99.90;;;;;;4952844;29;20210;-82
2020/12/21 01:27:53;;;;;;;0.50;0.50;;;4.20;99.90;;;;;;4954244;29;20214;-83
2020/12/21 01:30:20;;;;;;;0.50;0.50;;;4.20;99.90;;;;;;4955985;29;20259;-81
2020/12/21 01:32:46;;;;;;;0.50;0.50;;;4.20;99.90;;;;;;4953581;29;20212;-81
2020/12/21 01:35:12;;;;;;;0.50;0.50;;;4.20;99.90;;;;;;4953229;29;20633;-80
2020/12/21 01:37:38;;;;;;;0.50;0.50;;;4.30;99.90;;;;;;4953038;29;20199;-80
2020/12/21 01:40:06;;;;;;;0.50;0.50;;;4.40;99.90;;;;;;4953686;29;20204;-80
2020/12/21 01:42:32;;;;;;;0.50;0.50;;;4.40;99.90;;;;;;4953262;29;20203;-80
2020/12/21 01:44:58;;;;;;;0.50;0.50;;;4.40;99.90;;;;;;4953255;29;20674;-80
2020/12/21 01:47:28;;;;;;;0.50;0.50;;;4.40;99.90;;;;;;4952790;29;20200;-80
2020/12/21 01:49:55;;;;;;;0.50;0.50;;;4.40;99.90;;;;;;4953113;29;20204;-80
2020/12/21 01:52:21;;;;;;;0.50;0.50;;;4.40;99.90;;;;;;4952895;29;20227;-80
2020/12/21 01:54:48;;;;;;;0.50;0.50;;;4.40;99.90;;;;;;4952875;29;20208;-80
2020/12/21 01:57:15;;;;;;;0.50;0.50;;;4.30;99.90;;;;;;4952740;29;20219;-80
2020/12/21 01:59:41;;;;;;;0.50;0.50;;;4.20;99.90;;;;;;4953125;29;20200;-79
2020/12/21 02:02:08;;;;;;;0.50;0.50;;;4.20;99.90;;;;;;4952725;29;20203;-80
2020/12/21 02:04:35;;;;;;;0.50;0.50;;;4.20;99.90;;;;;;4951861;28;20235;-81
2020/12/21 02:07:03;;;;;;;0.50;0.50;;;4.10;99.90;;;;;;4952297;29;20210;-81
2020/12/21 02:09:29;;;;;;;0.57;0.57;;;4.10;99.90;;;;;;4952582;28;20231;-80
2020/12/21 02:11:55;;;;;;;0.50;0.50;;;4.10;99.90;;;;;;4952695;29;20266;-80
2020/12/21 02:14:22;;;;;;;0.57;0.57;;;4.20;99.90;;;;;;4952230;29;20208;-80
2020/12/21 02:16:49;;;;;;;0.50;0.50;;;4.10;99.90;;;;;;4952464;29;20200;-80
2020/12/21 02:19:18;;;;;;;0.50;0.50;;;4.10;99.90;;;;;;4952565;29;20208;-80
2020/12/21 02:21:48;;;;;;;0.50;0.50;;;4.10;99.90;;;;;;4952564;29;20204;-80
2020/12/21 02:24:14;;;;;;;0.50;0.50;;;4.10;99.90;;;;;;4952253;29;20269;-80
2020/12/21 02:26:40;;;;;;;0.50;0.50;;;4.20;99.90;;;;;;4952299;29;20203;-80
2020/12/21 02:29:07;;;;;;;0.50;0.50;;;4.20;99.90;;;;;;4952336;29;20393;-80
2020/12/21 02:31:33;;;;;;;0.50;0.50;;;4.20;99.90;;;;;;4952265;29;20226;-80
2020/12/21 02:33:59;;;;;;;0.50;0.50;;;4.10;99.90;;;;;;4951984;29;20203;-80
2020/12/21 02:36:25;;;;;;;0.50;0.50;;;4.10;99.90;;;;;;4952521;29;20215;-81
2020/12/21 02:38:52;;;;;;;0.50;0.50;;;4.10;99.90;;;;;;4952266;29;20208;-80
2020/12/21 02:41:19;;;;;;;0.50;0.50;;;4.10;99.90;;;;;;4951897;29;20694;-80
2020/12/21 02:43:45;;;;;;;0.50;0.50;;;4.10;99.90;;;;;;4951789;29;20557;-80
2020/12/21 02:46:14;;;;;;;0.50;0.50;;;4.10;99.90;;;;;;4951813;29;20218;-80
2020/12/21 02:48:40;;;;;;;0.50;0.50;;;4.10;99.90;;;;;;4952127;29;20207;-80
2020/12/21 02:51:06;;;;;;;0.50;0.50;;;4.10;99.90;;;;;;4951763;29;20752;-80
2020/12/21 02:53:32;;;;;;;0.50;0.50;;;4.10;99.90;;;;;;4951737;29;20200;-81
2020/12/21 02:55:59;;;;;;;0.50;0.50;;;4.10;99.90;;;;;;4951912;29;20204;-80
2020/12/21 02:58:25;;;;;;;0.50;0.50;;;4.00;99.90;;;;;;4951618;29;20686;-80
2020/12/21 03:00:52;;;;;;;0.50;0.50;;;4.00;99.90;;;;;;4951902;29;20215;-80
2020/12/21 03:03:18;;;;;;;0.50;0.50;;;4.00;99.90;;;;;;4951277;29;20670;-80
2020/12/21 03:05:44;;;;;;;0.50;0.50;;;4.00;99.90;;;;;;4951431;29;20295;-80
2020/12/21 03:08:11;;;;;;;0.50;0.50;;;4.10;99.90;;;;;;4951879;29;20628;-80
2020/12/21 03:10:38;;;;;;;0.50;0.50;;;4.20;99.90;;;;;;4951609;28;20611;-80
2020/12/21 03:13:05;;;;;;;0.50;0.50;;;4.20;99.90;;;;;;4951416;29;20274;-80
2020/12/21 03:15:32;;;;;;;0.50;0.50;;;4.30;99.90;;;;;;4951558;29;20206;-80
2020/12/21 03:17:58;;;;;;;0.50;0.50;;;4.30;99.90;;;;;;4951258;28;20615;-80
2020/12/21 03:20:24;;;;;;;0.50;0.50;;;4.20;99.90;;;;;;4951387;29;20267;-80
2020/12/21 03:22:50;;;;;;;0.50;0.50;;;4.20;99.90;;;;;;4951327;29;20266;-80
2020/12/21 03:25:17;;;;;;;0.50;0.50;;;4.20;99.90;;;;;;4951291;29;20207;-80
2020/12/21 03:27:43;;;;;;;0.50;0.50;;;4.20;99.90;;;;;;4951468;29;20200;-80
2020/12/21 03:30:11;;;;;;;0.50;0.50;;;4.20;99.90;;;;;;4951169;29;20562;-80
2020/12/21 03:32:37;;;;;;;0.50;0.50;;;4.20;99.90;;;;;;4951132;29;20230;-80
2020/12/21 03:35:05;;;;;;;0.50;0.50;;;4.20;99.90;;;;;;4951475;29;20200;-80
2020/12/21 03:37:32;;;;;;;0.50;0.50;;;4.30;99.90;;;;;;4951225;29;20219;-80
2020/12/21 03:39:58;;;;;;;0.50;0.50;;;4.30;99.90;;;;;;4951185;29;20663;-80
2020/12/21 03:42:25;;;;;;;0.50;0.50;;;4.30;99.90;;;;;;4950918;29;20641;-80
2020/12/21 03:44:51;;;;;;;0.50;0.50;;;4.40;99.90;;;;;;4951007;29;20662;-80
2020/12/21 03:47:18;;;;;;;0.50;0.50;;;4.50;99.90;;;;;;4951316;29;20207;-80
2020/12/21 03:49:44;;;;;;;0.50;0.50;;;4.50;99.90;;;;;;4951143;29;20704;-81
2020/12/21 03:52:10;;;;;;;0.50;0.50;;;4.60;99.90;;;;;;4950649;29;20228;-81
2020/12/21 03:54:36;;;;;;;0.50;0.50;;;4.70;99.90;;;;;;4951244;29;20222;-80
2020/12/21 03:57:02;;;;;;;0.50;0.50;;;4.80;99.90;;;;;;4951275;29;20203;-80
2020/12/21 03:59:28;;;;;;;0.50;0.50;;;4.90;99.90;;;;;;4951009;29;20422;-80
2020/12/21 04:01:54;;;;;;;0.50;0.50;;;4.90;99.90;;;;;;4950520;29;20642;-80
2020/12/21 04:04:21;;;;;;;0.50;0.50;;;5.00;99.90;;;;;;4950709;29;20240;-81
2020/12/21 04:06:47;;;;;;;0.50;0.50;;;5.00;99.90;;;;;;4950832;29;20215;-80
2020/12/21 04:09:14;;;;;;;0.50;0.50;;;5.10;99.90;;;;;;4950923;28;20220;-81
2020/12/21 04:11:40;;;;;;;0.50;0.50;;;5.20;99.90;;;;;;4950887;29;20255;-80
2020/12/21 04:14:06;;;;;;;0.50;0.50;;;5.20;99.90;;;;;;4950775;29;20203;-80
2020/12/21 04:16:32;;;;;;;0.50;0.50;;;5.30;99.90;;;;;;4950823;29;20287;-80
2020/12/21 04:18:58;;;;;;;0.50;0.50;;;5.30;99.90;;;;;;4950940;29;20208;-81
2020/12/21 04:21:25;;;;;;;0.50;0.50;;;5.40;99.90;;;;;;4950718;29;20204;-81
2020/12/21 04:23:53;;;;;;;0.50;0.50;;;5.50;99.90;;;;;;4950690;29;20263;-81
2020/12/21 04:26:19;;;;;;;0.50;0.50;;;5.50;99.90;;;;;;4950704;29;20207;-80
2020/12/21 04:28:45;;;;;;;0.50;0.50;;;5.50;99.90;;;;;;4952158;28;20619;-81
2020/12/21 04:31:11;;;;;;;0.50;0.50;;;5.50;99.90;;;;;;4954333;29;20665;-81
2020/12/21 04:33:37;;;;;;;0.50;0.50;;;5.40;99.90;;;;;;4954061;29;20647;-81
2020/12/21 04:36:08;;;;;;;0.50;0.50;;;5.50;99.90;;;;;;4954474;29;20291;-81
2020/12/21 04:38:35;;;;;;;0.50;0.50;;;5.40;99.90;;;;;;4954726;29;20208;-80
2020/12/21 04:41:01;;;;;;;0.50;0.50;;;5.50;99.90;;;;;;4954139;29;20243;-81
2020/12/21 04:43:28;;;;;;;0.50;0.50;;;5.50;99.90;;;;;;4954085;29;20207;-80
2020/12/21 04:45:55;;;;;;;0.50;0.50;;;5.50;99.90;;;;;;4954248;29;20204;-81
2020/12/21 04:48:23;;;;;;;0.50;0.50;;;5.50;99.90;;;;;;4953986;29;20199;-80
2020/12/21 04:50:52;;;;;;;0.50;0.50;;;5.60;99.90;;;;;;4953815;29;20211;-80
2020/12/21 04:53:19;;;;;;;0.50;0.50;;;5.60;99.90;;;;;;4954070;29;20210;-80
2020/12/21 04:55:46;;;;;;;0.50;0.50;;;5.60;99.90;;;;;;4954143;29;20501;-80
2020/12/21 04:58:12;;;;;;;0.50;0.50;;;5.60;99.90;;;;;;4953694;29;20246;-80
2020/12/21 05:00:39;;;;;;;0.50;0.50;;;5.60;99.90;;;;;;4953945;29;20625;-80
2020/12/21 05:03:06;;;;;;;0.50;0.50;;;5.50;99.90;;;;;;4954019;29;20208;-80
2020/12/21 05:05:33;;;;;;;0.50;0.50;;;5.50;99.90;;;;;;4953777;29;20255;-80
2020/12/21 05:08:09;;;;;;;0.50;0.50;;;5.50;99.90;;;;;;4953854;29;20200;-81
2020/12/21 05:10:36;;;;;;;0.50;0.50;;;5.50;99.90;;;;;;4954527;28;20227;-80
2020/12/21 05:13:04;;;;;;;0.50;0.50;;;5.50;99.90;;;;;;4953473;29;20254;-81
2020/12/21 05:15:30;;;;;;;0.50;0.50;;;5.50;99.90;;;;;;4953537;29;20204;-81
2020/12/21 05:18:05;;;;;;;0.50;0.50;;;5.50;99.90;;;;;;4953848;29;20211;-81
2020/12/21 05:20:31;;;;;;;0.50;0.50;;;5.50;99.90;;;;;;4953410;29;20250;-81
2020/12/21 05:22:57;;;;;;;0.50;0.50;;;5.50;99.90;;;;;;4953615;29;20216;-80
2020/12/21 05:25:23;;;;;;;0.50;0.50;;;5.40;99.90;;;;;;4953443;29;20204;-80
2020/12/21 05:27:50;;;;;;;0.50;0.50;;;5.40;99.90;;;;;;4953230;29;20207;-81
2020/12/21 05:30:17;;;;;;;0.50;0.50;;;5.40;99.90;;;;;;4953181;29;20629;-81
2020/12/21 05:32:43;;;;;;;0.50;0.50;;;5.30;99.90;;;;;;4953460;29;20246;-80
2020/12/21 05:35:11;;;;;;;0.50;0.50;;;5.20;99.90;;;;;;4953417;29;20204;-80
2020/12/21 05:37:38;;;;;;;0.60;0.60;;;5.20;99.90;;;;;;4953164;29;20693;-80
2020/12/21 05:40:06;;;;;;;0.50;0.50;;;5.30;99.90;;;;;;4953202;28;20208;-81
2020/12/21 05:42:35;;;;;;;0.50;0.50;;;5.20;99.90;;;;;;4953453;29;20207;-80
2020/12/21 05:45:03;;;;;;;0.50;0.50;;;5.20;99.90;;;;;;4953222;29;20633;-80
2020/12/21 05:47:30;;;;;;;0.50;0.50;;;5.20;99.90;;;;;;4952875;29;20204;-80
2020/12/21 05:49:58;;;;;;;0.50;0.50;;;5.30;99.90;;;;;;4953160;29;20208;-80
2020/12/21 05:52:30;;;;;;;0.50;0.50;;;5.20;99.90;;;;;;4952842;29;20778;-80
2020/12/21 05:54:57;;;;;;;0.50;0.50;;;5.20;99.90;;;;;;4953015;29;20264;-80
2020/12/21 05:57:27;;;;;;;0.50;0.50;;;5.20;99.90;;;;;;4952908;29;20730;-80
2020/12/21 05:59:54;;;;;;;0.50;0.50;;;5.20;99.90;;;;;;4953012;29;20199;-80
2020/12/21 06:02:20;;;;;;;0.50;0.50;;;5.20;99.90;;;;;;4952595;29;20204;-80
2020/12/21 06:04:49;;;;;;;0.50;0.50;;;5.20;99.90;;;;;;4952861;29;20236;-80
2020/12/21 06:07:22;;;;;;;0.50;0.50;;;5.30;99.90;;;;;;4952911;29;20211;-80
2020/12/21 06:09:50;;;;;;;0.50;0.50;;;5.30;99.90;;;;;;4952687;28;20230;-80
2020/12/21 06:12:20;;;;;;;0.50;0.50;;;5.30;99.90;;;;;;4952631;29;20228;-80
2020/12/21 06:14:48;;;;;;;0.50;0.50;;;5.30;99.90;;;;;;4952579;29;20227;-80
2020/12/21 06:17:14;;;;;;;0.50;0.50;;;5.40;99.90;;;;;;4952503;29;20210;-80
2020/12/21 06:19:40;;;;;;;0.50;0.50;;;5.30;99.90;;;;;;4952701;29;20211;-80
2020/12/21 06:22:07;;;;;;;0.50;0.50;;;5.30;99.90;;;;;;4952603;29;20395;-80
2020/12/21 06:24:38;;;;;;;0.50;0.50;;;5.20;99.90;;;;;;4952039;29;20662;-80
2020/12/21 06:27:13;;;;;;;0.50;0.50;;;5.20;99.90;;;;;;4952385;29;20210;-80
2020/12/21 06:29:40;;;;;;;0.50;0.50;;;5.20;99.90;;;;;;4952207;29;20322;-80
2020/12/21 06:32:08;;;;;;;0.50;0.50;;;5.10;99.90;;;;;;4952246;29;20226;-80
2020/12/21 06:34:35;;;;;;;0.55;0.55;;;5.10;99.90;;;;;;4952320;29;20196;-80
2020/12/21 06:37:03;;;;;;;0.50;0.50;;;5.10;99.90;;;;;;4952137;29;20467;-80
2020/12/21 06:39:31;;;;;;;0.50;0.50;;;5.10;99.90;;;;;;4952042;29;20207;-80
2020/12/21 06:42:05;;;;;;;0.50;0.50;;;5.00;99.90;;;;;;4952196;29;20299;-80
2020/12/21 06:44:32;;;;;;;0.50;0.50;;;5.10;99.90;;;;;;4952220;29;20570;-80
2020/12/21 06:46:59;;;;;;;0.50;0.50;;;5.00;99.90;;;;;;4952324;29;20212;-80
2020/12/21 06:49:26;;;;;;;0.50;0.50;;;5.00;99.90;;;;;;4951923;29;20302;-81
2020/12/21 06:51:52;;;;;;;0.50;0.50;;;5.00;99.90;;;;;;4951226;28;20219;-80
2020/12/21 06:54:19;;;;;;;0.50;0.50;;;5.00;99.90;;;;;;4951714;29;20211;-80
2020/12/21 06:56:47;;;;;;;0.47;0.47;;;5.00;99.90;;;;;;4951943;29;20200;-80
2020/12/21 06:59:14;;;;;;;0.50;0.50;;;4.90;99.90;;;;;;4951944;29;20679;-80
2020/12/21 07:01:43;;;;;;;0.50;0.50;;;4.90;99.90;;;;;;4932268;29;20204;-80
2020/12/21 07:04:14;;;;;;;0.50;0.50;;;4.90;99.90;;;;;;4932292;29;20778;-80
2020/12/21 07:06:41;;;;;;;0.50;0.50;;;4.90;99.90;;;;;;4932645;29;20208;-80
2020/12/21 07:09:07;;;;;;;0.50;0.50;;;4.90;99.90;;;;;;4932246;29;20239;-80
2020/12/21 07:11:34;;;;;;;0.50;0.50;;;4.80;99.90;;;;;;4932383;29;20224;-79
2020/12/21 07:14:01;;;;;;;0.50;0.50;;;4.80;99.90;;;;;;4932686;29;20204;-80
2020/12/21 07:16:27;;;;;;;0.50;0.50;;;4.80;99.90;;;;;;4932138;29;20239;-80
2020/12/21 07:18:53;;;;;;;0.50;0.50;;;4.80;99.90;;;;;;4932311;29;20211;-80
2020/12/21 07:21:20;;;;;;;0.50;0.50;;;4.80;99.90;;;;;;4932507;29;20204;-80
2020/12/21 07:23:46;;;;;;;0.50;0.50;;;4.70;99.90;;;;;;4932378;29;20259;-80
2020/12/21 07:26:14;;;;;;;0.50;0.50;;;4.70;99.90;;;;;;4932231;29;20208;-80
2020/12/21 07:28:41;;;;;;;0.50;0.50;;;4.70;99.90;;;;;;4932185;29;20216;-80
2020/12/21 07:31:09;;;;;;;0.55;0.55;;;4.70;99.90;;;;;;4932136;29;20228;-80
2020/12/21 07:33:48;;;;;;;0.50;0.50;;;4.70;99.90;;;;;;4932140;29;20207;-80
2020/12/21 07:36:14;;;;;;;0.50;0.50;;;4.60;99.90;;;;;;4932380;29;20212;-80
2020/12/21 07:38:40;;;;;;;0.50;0.50;;;4.60;99.90;;;;;;4932261;29;20205;-81
2020/12/21 07:41:08;;;;;;;0.50;0.50;;;4.50;99.90;;;;;;4931862;29;20207;-81
2020/12/21 07:43:36;;;;;;;0.50;0.50;;;4.60;99.90;;;;;;4932052;29;20614;-80
2020/12/21 07:46:08;;;;;;;0.50;0.50;;;4.50;99.90;;;;;;4931954;29;20211;-80
2020/12/21 07:48:36;;;;;;;0.50;0.50;;;4.50;99.90;;;;;;4932020;29;20212;-80
2020/12/21 07:51:04;;;;;;;0.50;0.50;;;4.50;99.90;;;;;;4931985;29;20260;-80
2020/12/21 07:53:35;;;;;;;0.50;0.50;;;4.50;99.90;;;;;;4936809;29;20204;-84
2020/12/21 07:56:02;;;;;;;0.50;0.50;;;;;;;;;;5102689;23;20324;-86
2020/12/21 07:58:28;;;;;;;0.50;0.50;;;4.50;99.90;;;;;;4983347;28;20207;-87
2020/12/21 08:00:58;;;;;;;0.50;0.50;;;4.50;99.90;;;;;;4981922;28;20608;-83
2020/12/21 08:03:27;;;;;;;0.50;0.50;;;4.50;99.90;;;;;;4985604;28;20205;-83
2020/12/21 08:06:10;;;;;;;0.50;0.50;;;4.50;99.90;;;;;;4979219;28;20203;-84
2020/12/21 08:08:37;;;;;;;0.50;0.50;;;;;;;;;;4982752;28;20262;-83
2020/12/21 08:11:04;;;;;;;0.50;0.50;;;4.90;99.90;;;;;;4977881;28;20202;-83
2020/12/21 08:13:30;;;;;;;0.50;0.50;;;4.50;99.90;;;;;;4973801;28;20642;-83
2020/12/21 08:16:09;;;;;;;0.50;0.50;;;4.50;99.90;;;;;;4974116;28;20203;-83
2020/12/21 08:18:36;;;;;;;0.50;0.50;;;4.50;99.90;;;;;;4973986;28;20638;-83
2020/12/21 08:21:03;;;;;;;0.50;0.50;;;4.50;99.90;;;;;;4974273;28;20199;-83
2020/12/21 08:23:32;;;;;;;0.50;0.50;;;4.50;99.90;;;;;;4973934;28;20693;-83
2020/12/21 08:25:59;;;;;;;0.50;0.50;;;4.40;99.90;;;;;;4974017;28;20203;-83
2020/12/21 08:28:27;;;;;;;0.50;0.50;;;4.40;99.90;;;;;;4973885;28;20203;-84
2020/12/21 08:31:08;;;;;;;0.50;0.50;;;4.50;99.90;;;;;;4975163;28;20669;-84
2020/12/21 08:33:35;;;;;;;0.50;0.50;;;4.50;99.90;;;;;;4981453;28;20265;-83
2020/12/21 08:36:16;;;;;;;0.50;0.50;;;4.40;99.90;;;;;;4981765;28;20206;-84
2020/12/21 08:38:43;;;;;;;0.50;0.50;;;4.40;99.90;;;;;;4981501;28;20207;-83
2020/12/21 08:41:09;;;;;;;0.50;0.50;;;4.40;99.90;;;;;;4978296;28;20704;-84
2020/12/21 08:43:35;;;;;;;0.50;0.50;;;4.50;99.90;;;;;;4979585;28;20334;-84
2020/12/21 08:46:06;;;;;;;0.50;0.50;;;4.50;99.90;;;;;;4991057;28;20197;-83
2020/12/21 08:48:32;;;;;;;0.50;0.50;;;4.50;99.90;;;;;;4981339;28;20712;-84
2020/12/21 08:50:59;;;;;;;0.50;0.50;;;4.60;99.90;;;;;;4973277;28;20191;-84
2020/12/21 08:56:15;;;;;;;0.50;0.50;;;4.70;99.90;;;;;;5271392;23;20243;-82
2020/12/21 08:58:41;;;;;;;0.50;0.50;;;;;;;;;;4991630;28;20289;-82
2020/12/21 09:01:08;;;;;;;0.50;0.50;;;4.80;99.90;;;;;;4982363;28;20211;-81
2020/12/21 09:03:35;;;;;;;0.50;0.50;;;4.90;99.90;;;;;;4979796;28;20229;-81
2020/12/21 09:06:13;;;;;;;0.50;0.50;;;5.00;99.90;;;;;;5735194;23;20198;-84
2020/12/21 09:08:41;;;;;;;0.50;0.50;;;5.00;99.90;;;;;;5216821;23;20230;-85
2020/12/21 09:11:19;;;;;;;0.50;0.50;;;4.90;99.90;;;;;;4998764;28;20242;-84
2020/12/21 09:13:59;;;;;;;0.50;0.50;;;5.10;99.90;;;;;;5000253;28;20202;-83
2020/12/21 09:16:27;;;;;;;0.50;0.50;;;5.20;99.90;;;;;;4999564;28;20198;-83
2020/12/21 09:19:01;;;;;;;0.50;0.50;;;5.20;99.90;;;;;;5001017;28;20210;-85
2020/12/21 09:24:49;;;;;;;0.50;0.50;;;5.20;99.90;;;;;;5291896;23;20246;-84
2020/12/21 09:27:24;;;;;;;0.50;0.50;;;5.30;99.90;;;;;;4997716;28;20207;-84
2020/12/21 09:29:50;;;;;;;0.50;0.50;;;;;;;;;;4976467;28;20255;-85
2020/12/21 09:32:17;;;;;;;0.50;0.50;;;;;;;;;;4979191;28;20219;-84
2020/12/21 09:34:43;;;;;;;0.50;0.50;;;;;;;;;;4978292;28;20249;-84
2020/12/21 09:37:12;;;;;;;0.50;0.50;;;5.40;99.90;;;;;;4978343;28;20206;-85
2020/12/21 09:39:38;;;;;;;0.50;0.50;;;5.20;99.90;;;;;;4977300;28;20199;-84
2020/12/21 09:42:06;;;;;;;0.50;0.50;;;5.60;99.90;;;;;;4977186;28;20202;-84
2020/12/21 09:44:50;;;;;;;0.50;0.50;;;5.10;99.90;;;;;;4977731;28;20667;-84
2020/12/21 09:47:17;;;;;;;0.50;0.50;;;;;;;;;;4949979;28;20207;-83
2020/12/21 09:49:43;;;;;;;0.50;0.50;;;;;;;;;;4971268;28;20224;-85
2020/12/21 09:52:10;;;;;;;0.50;0.50;;;;;;;;;;4963867;28;20262;-84
2020/12/21 09:54:37;;;;;;;0.50;0.50;;;;;;;;;;4965876;28;20250;-84
2020/12/21 09:57:07;;;;;;;0.50;0.50;;;;;;;;;;4966769;28;20290;-84
2020/12/21 09:59:35;;;;;;;0.52;0.52;;;5.70;99.90;;;;;;4964535;28;20204;-85
2020/12/21 10:02:11;;;;;;;0.50;0.50;;;5.60;99.90;;;;;;4961279;28;20203;-84
2020/12/21 10:04:38;;;;;;;0.50;0.50;;;;;;;;;;4968135;28;20212;-83
2020/12/21 10:07:04;;;;;;;0.50;0.50;;;5.70;99.90;;;;;;4963471;28;20212;-84
2020/12/21 10:09:30;;;;;;;0.50;0.50;;;5.70;99.90;;;;;;4963785;28;20219;-85
2020/12/21 10:11:56;;;;;;;0.50;0.50;;;5.70;99.90;;;;;;4963924;28;20224;-85
2020/12/21 10:14:24;;;;;;;0.50;0.50;;;5.70;99.90;;;;;;4963537;28;20251;-85
2020/12/21 10:16:53;;;;;;;0.50;0.50;;;5.70;99.90;;;;;;4964868;28;20559;-84
2020/12/21 10:19:30;;;;;;;0.60;0.60;;;5.80;99.90;;;;;;4962647;28;20293;-84
2020/12/21 10:22:09;;;;;;;0.50;0.50;;;5.80;99.90;;;;;;4992606;28;20205;-84
2020/12/21 10:24:35;;;;;;;0.50;0.50;;;5.90;99.90;;;;;;4977370;28;20239;-83
2020/12/21 10:27:02;;;;;;;0.50;0.50;;;5.90;99.90;;;;;;4973571;28;20258;-83
2020/12/21 10:29:28;;;;;;;0.50;0.50;;;6.00;99.90;;;;;;4971124;28;20211;-81
2020/12/21 10:31:57;;;;;;;0.50;0.50;;;6.10;99.90;;;;;;4971072;28;20230;-82
2020/12/21 10:34:24;;;;;;;0.50;0.50;;;6.20;99.90;;;;;;4970964;28;20558;-80
2020/12/21 10:36:50;;;;;;;0.50;0.50;;;6.10;99.90;;;;;;4971126;28;20207;-81
2020/12/21 10:39:17;;;;;;;0.50;0.50;;;6.20;99.90;;;;;;4970733;28;20593;-81
2020/12/21 10:41:44;;;;;;;0.50;0.50;;;6.30;99.90;;;;;;4963531;28;20204;-83
2020/12/21 10:44:10;;;;;;;0.50;0.50;;;6.20;99.90;;;;;;4971134;28;20673;-82
2020/12/21 10:46:36;;;;;;;0.50;0.50;;;6.30;99.90;;;;;;4970772;28;20214;-82
2020/12/21 10:49:02;;;;;;;0.50;0.50;;;6.30;99.90;;;;;;4963076;28;20271;-83
2020/12/21 10:51:31;;;;;;;0.50;0.50;;;6.30;99.90;;;;;;4960809;28;20219;-81
2020/12/21 10:53:57;;;;;;;0.50;0.50;;;6.30;99.90;;;;;;4953614;28;20200;-81
2020/12/21 10:56:23;;;;;;;0.60;0.60;;;6.40;99.90;;;;;;4948156;29;20199;-80
2020/12/21 10:58:51;;;;;;;0.50;0.50;;;6.40;99.90;;;;;;4952557;28;20211;-84
2020/12/21 11:01:26;;;;;;;0.50;0.50;;;6.50;99.90;;;;;;4971659;28;20266;-84
2020/12/21 11:03:52;;;;;;;0.50;0.50;;;6.60;99.90;;;;;;4966043;28;20802;-85
2020/12/21 11:06:23;;;;;;;0.50;0.50;;;6.90;99.90;;;;;;4960642;28;20214;-85
2020/12/21 11:08:52;;;;;;;0.50;0.50;;;7.00;99.90;;;;;;4961046;28;20215;-85
2020/12/21 11:11:26;;;;;;;0.60;0.60;;;7.20;99.90;;;;;;4949316;28;20290;-81
2020/12/21 11:13:59;;;;;;;0.50;0.50;;;7.30;99.90;;;;;;4959274;28;20208;-81
2020/12/21 11:16:25;;;;;;;0.55;0.55;;;7.40;99.90;;;;;;4952715;28;20207;-82
2020/12/21 11:18:51;;;;;;;0.60;0.60;;;7.40;99.90;;;;;;4961074;28;20204;-81
2020/12/21 11:21:18;;;;;;;0.50;0.50;;;7.50;99.90;;;;;;4952532;28;20199;-80
2020/12/21 11:23:46;;;;;;;0.57;0.57;;;7.70;99.90;;;;;;4956136;28;20261;-82
2020/12/21 11:26:18;;;;;;;0.50;0.50;;;8.10;99.90;;;;;;4954641;28;20207;-81
2020/12/21 11:28:44;;;;;;;0.57;0.57;;;8.60;99.90;;;;;;4949313;28;20286;-84
2020/12/21 11:31:14;;;;;;;0.57;0.57;;;9.00;99.90;;;;;;4912584;28;20211;-81
2020/12/21 11:33:40;;;;;;;0.50;0.50;;;9.10;99.90;;;;;;4950538;28;20204;-81
2020/12/21 11:36:06;;;;;;;0.50;0.50;;;9.20;99.90;;;;;;4951188;28;20214;-82
2020/12/21 11:38:33;;;;;;;0.50;0.50;;;9.30;99.90;;;;;;4956663;28;20219;-83
2020/12/21 11:40:59;;;;;;;0.60;0.60;;;9.50;99.90;;;;;;4952181;29;20265;-84
2020/12/21 11:43:27;;;;;;;0.60;0.60;;;9.60;99.90;;;;;;4931135;29;20263;-84
2020/12/21 11:45:53;;;;;;;0.50;0.50;;;;;;;;;;4939865;29;20208;-83
2020/12/21 11:48:19;;;;;;;0.60;0.60;;;9.60;99.90;;;;;;4940154;28;20235;-84
2020/12/21 11:50:45;;;;;;;0.57;0.57;;;9.60;99.90;;;;;;4935679;29;20215;-83
2020/12/21 11:53:13;;;;;;;0.60;0.60;;;9.70;99.90;;;;;;4930610;29;20232;-84
2020/12/21 11:55:40;;;;;;;0.60;0.60;;;9.60;99.90;;;;;;5192502;23;20309;-86
2020/12/21 11:58:10;;;;;;;0.60;0.60;;;;;;;;;;4965217;28;20583;-82
2020/12/21 12:00:40;;;;;;;0.60;0.60;;;9.80;99.90;;;;;;4967194;28;20211;-84
2020/12/21 12:03:06;;;;;;;0.60;0.60;;;9.80;99.90;;;;;;4948224;28;20207;-85
2020/12/21 12:05:32;;;;;;;0.57;0.57;;;9.80;99.90;;;;;;4945845;28;20200;-85
2020/12/21 12:07:58;;;;;;;0.52;0.52;;;9.90;99.90;;;;;;4949546;28;20251;-84
2020/12/21 12:10:24;;;;;;;0.60;0.60;;;10.00;99.90;;;;;;4950283;28;20231;-84
2020/12/21 12:12:52;;;;;;;0.55;0.55;;;9.90;99.90;;;;;;4950775;28;20734;-85
2020/12/21 12:15:20;;;;;;;0.60;0.60;;;9.70;99.90;;;;;;4950404;28;20215;-86
2020/12/21 12:17:47;;;;;;;0.60;0.60;;;9.60;99.90;;;;;;4963618;28;20210;-85
2020/12/21 12:20:16;;;;;;;0.57;0.57;;;9.70;99.90;;;;;;4949982;28;20211;-85
2020/12/21 12:22:42;;;;;;;0.57;0.57;;;9.50;99.90;;;;;;4964537;28;20207;-85
2020/12/21 12:25:08;;;;;;;0.60;0.60;;;9.70;99.90;;;;;;4961705;28;20705;-85
2020/12/21 12:27:34;;;;;;;0.60;0.60;;;9.60;99.90;;;;;;4950179;28;20196;-85
2020/12/21 12:30:00;;;;;;;0.50;0.50;;;9.60;99.90;;;;;;4949761;28;20373;-86
2020/12/21 12:32:26;;;;;;;0.60;0.60;;;9.50;99.90;;;;;;4949899;28;20238;-86
2020/12/21 12:34:53;;;;;;;0.50;0.50;;;9.20;99.90;;;;;;4950278;28;20306;-85
2020/12/21 12:37:19;;;;;;;0.52;0.52;;;9.00;99.90;;;;;;4949927;28;20670;-86
2020/12/21 12:39:46;;;;;;;0.57;0.57;;;;;;;;;;4950060;28;20662;-86
2020/12/21 12:42:13;;;;;;;0.60;0.60;;;;;;;;;;4950286;28;20259;-85
2020/12/21 12:44:39;;;;;;;0.57;0.57;;;;;;;;;;4949865;28;20211;-85
2020/12/21 12:47:06;;;;;;;0.60;0.60;;;;;;;;;;4957462;28;20686;-86
2020/12/21 12:49:32;;;;;;;0.60;0.60;;;;;;;;;;4968087;28;20214;-86
2020/12/21 12:52:00;;;;;;;0.60;0.60;;;8.30;99.90;;;;;;4966840;28;20231;-83
2020/12/21 12:54:27;;;;;;;0.50;0.50;;;8.20;99.90;;;;;;4962269;28;20938;-86
2020/12/21 12:56:54;;;;;;;0.60;0.60;;;;;;;;;;4954417;28;20286;-86
2020/12/21 12:59:26;;;;;;;0.60;0.60;;;7.90;99.90;;;;;;4953721;28;20274;-91
2020/12/21 13:01:53;;;;;;;0.60;0.60;;;;;;;;;;4954331;28;20199;-85
2020/12/21 13:04:19;;;;;;;0.60;0.60;;;;;;;;;;4953696;28;20219;-85
2020/12/21 13:06:48;;;;;;;0.57;0.57;;;;;;;;;;4955794;28;20214;-88
2020/12/21 13:09:15;;;;;;;0.60;0.60;;;7.70;99.90;;;;;;4955145;28;20224;-84
2020/12/21 13:11:41;;;;;;;0.55;0.55;;;7.80;99.90;;;;;;4953628;28;20242;-83
2020/12/21 13:14:07;;;;;;;0.57;0.57;;;7.80;99.90;;;;;;4963407;28;20211;-86